Terminal Aerodrome Forecast
Issued by NWS

Home | Current Version | Previous Version | Text Only | Print | Product List | Glossary On
Versions: 1 2 3 4 5 6 7 8 9 10 11 12 13 14 15 16 17
000
FTUS43 KILX 291138
TAFBMI
TAF
KBMI 291138Z 2912/3012 36013G22KT P6SM OVC012
     FM291500 01015G23KT P6SM VCSH OVC010
     FM300000 02012KT P6SM VCSH OVC006=

USA.gov is the U.S. government's official web portal to all federal, state and local government web resources and services.